sensor_id;sensor_type;location;lat;lon;timestamp;pressure;altitude;pressure_sealevel;temperature;humidity
45369;BME280;51342;55.250;37.668;2023-02-22T00:02:02;98313.97;;;-17.34;65.34
45369;BME280;51342;55.250;37.668;2023-02-22T00:04:43;98322.06;;;-17.35;65.45
45369;BME280;51342;55.250;37.668;2023-02-22T00:07:15;98319.59;;;-17.35;65.52
45369;BME280;51342;55.250;37.668;2023-02-22T00:09:46;98327.66;;;-17.36;65.35
45369;BME280;51342;55.250;37.668;2023-02-22T00:12:18;98331.72;;;-17.36;65.15
45369;BME280;51342;55.250;37.668;2023-02-22T00:14:50;98326.31;;;-17.34;65.29
45369;BME280;51342;55.250;37.668;2023-02-22T00:17:22;98318.69;;;-17.35;65.13
45369;BME280;51342;55.250;37.668;2023-02-22T00:19:53;98323.63;;;-17.35;65.17
45369;BME280;51342;55.250;37.668;2023-02-22T00:22:24;98319.41;;;-17.42;65.14
45369;BME280;51342;55.250;37.668;2023-02-22T00:24:56;98337.63;;;-17.47;65.15
45369;BME280;51342;55.250;37.668;2023-02-22T00:27:28;98334.31;;;-17.53;65.17
45369;BME280;51342;55.250;37.668;2023-02-22T00:29:59;98344.22;;;-17.59;65.44
45369;BME280;51342;55.250;37.668;2023-02-22T00:32:31;98343.81;;;-17.62;65.14
45369;BME280;51342;55.250;37.668;2023-02-22T00:35:02;98342.03;;;-17.63;65.32
45369;BME280;51342;55.250;37.668;2023-02-22T00:37:38;98351.44;;;-17.66;65.14
45369;BME280;51342;55.250;37.668;2023-02-22T00:40:15;98345.72;;;-17.78;65.06
45369;BME280;51342;55.250;37.668;2023-02-22T00:42:47;98355.84;;;-17.87;65.46
45369;BME280;51342;55.250;37.668;2023-02-22T00:45:21;98356.16;;;-17.97;65.41
45369;BME280;51342;55.250;37.668;2023-02-22T00:47:53;98358.19;;;-18.06;65.45
45369;BME280;51342;55.250;37.668;2023-02-22T00:50:26;98357.09;;;-18.08;65.49
45369;BME280;51342;55.250;37.668;2023-02-22T00:52:59;98364.47;;;-18.02;65.37
45369;BME280;51342;55.250;37.668;2023-02-22T00:55:34;98368.72;;;-18.01;65.53
45369;BME280;51342;55.250;37.668;2023-02-22T00:58:06;98369.81;;;-17.99;65.31
45369;BME280;51342;55.250;37.668;2023-02-22T01:00:40;98375.03;;;-18.03;65.20
45369;BME280;51342;55.250;37.668;2023-02-22T01:03:16;98383.31;;;-18.03;65.07
45369;BME280;51342;55.250;37.668;2023-02-22T01:05:47;98392.53;;;-18.07;65.26
45369;BME280;51342;55.250;37.668;2023-02-22T01:08:19;98385.84;;;-18.14;65.19
45369;BME280;51342;55.250;37.668;2023-02-22T01:10:50;98382.72;;;-18.24;65.09
45369;BME280;51342;55.250;37.668;2023-02-22T01:13:23;98386.31;;;-18.28;65.20
45369;BME280;51342;55.250;37.668;2023-02-22T01:15:56;98393.97;;;-18.32;65.24
45369;BME280;51342;55.250;37.668;2023-02-22T01:18:27;98383.44;;;-18.36;65.23
45369;BME280;51342;55.250;37.668;2023-02-22T01:20:59;98400.44;;;-18.27;65.13
45369;BME280;51342;55.250;37.668;2023-02-22T01:23:31;98415.03;;;-18.28;65.17
45369;BME280;51342;55.250;37.668;2023-02-22T01:26:04;98412.13;;;-18.31;65.16
45369;BME280;51342;55.250;37.668;2023-02-22T01:28:37;98413.03;;;-18.31;65.05
45369;BME280;51342;55.250;37.668;2023-02-22T01:31:09;98416.41;;;-18.36;65.25
45369;BME280;51342;55.250;37.668;2023-02-22T01:33:40;98423.13;;;-18.35;65.19
45369;BME280;51342;55.250;37.668;2023-02-22T01:36:12;98428.06;;;-18.35;65.17
45369;BME280;51342;55.250;37.668;2023-02-22T01:38:44;98422.91;;;-18.31;65.11
45369;BME280;51342;55.250;37.668;2023-02-22T01:41:15;98430.72;;;-18.22;64.97
45369;BME280;51342;55.250;37.668;2023-02-22T01:43:48;98421.28;;;-18.19;64.99
45369;BME280;51342;55.250;37.668;2023-02-22T01:46:26;98434.31;;;-18.14;64.77
45369;BME280;51342;55.250;37.668;2023-02-22T01:49:00;98436.53;;;-18.16;64.87
45369;BME280;51342;55.250;37.668;2023-02-22T01:51:36;98437.66;;;-18.14;64.89
45369;BME280;51342;55.250;37.668;2023-02-22T01:54:18;98444.59;;;-18.11;64.70
45369;BME280;51342;55.250;37.668;2023-02-22T01:57:01;98443.25;;;-18.09;64.62
45369;BME280;51342;55.250;37.668;2023-02-22T01:59:39;98439.66;;;-18.11;64.58
45369;BME280;51342;55.250;37.668;2023-02-22T02:02:12;98448.19;;;-18.09;64.99
45369;BME280;51342;55.250;37.668;2023-02-22T02:04:44;98442.34;;;-18.10;64.92
45369;BME280;51342;55.250;37.668;2023-02-22T02:07:17;98460.28;;;-18.05;64.86
45369;BME280;51342;55.250;37.668;2023-02-22T02:10:03;98445.50;;;-18.11;64.62
45369;BME280;51342;55.250;37.668;2023-02-22T02:12:35;98457.38;;;-18.03;64.79
45369;BME280;51342;55.250;37.668;2023-02-22T02:15:21;98463.44;;;-18.06;64.68
45369;BME280;51342;55.250;37.668;2023-02-22T02:17:54;98458.97;;;-18.09;64.65
45369;BME280;51342;55.250;37.668;2023-02-22T02:24:05;98469.06;;;-18.07;64.92
45369;BME280;51342;55.250;37.668;2023-02-22T02:27:21;98481.41;;;-18.07;64.91
45369;BME280;51342;55.250;37.668;2023-02-22T02:35:38;98501.56;;;-17.99;64.86
45369;BME280;51342;55.250;37.668;2023-02-22T02:39:06;98506.53;;;-18.04;64.80
45369;BME280;51342;55.250;37.668;2023-02-22T02:44:08;98518.22;;;-18.03;64.83
45369;BME280;51342;55.250;37.668;2023-02-22T02:47:11;98516.41;;;-18.10;65.00
45369;BME280;51342;55.250;37.668;2023-02-22T02:50:05;98522.22;;;-18.09;64.87
45369;BME280;51342;55.250;37.668;2023-02-22T02:52:40;98526.53;;;-18.08;65.17
45369;BME280;51342;55.250;37.668;2023-02-22T02:55:12;98524.94;;;-18.02;65.00
45369;BME280;51342;55.250;37.668;2023-02-22T02:57:45;98532.56;;;-17.95;65.08
45369;BME280;51342;55.250;37.668;2023-02-22T03:00:20;98532.09;;;-17.92;64.84
45369;BME280;51342;55.250;37.668;2023-02-22T03:03:13;98526.94;;;-17.94;64.88
45369;BME280;51342;55.250;37.668;2023-02-22T03:06:10;98533.44;;;-17.95;64.93
45369;BME280;51342;55.250;37.668;2023-02-22T03:11:27;98535.22;;;-17.94;65.11
45369;BME280;51342;55.250;37.668;2023-02-22T03:19:29;98537.00;;;-17.81;64.76
45369;BME280;51342;55.250;37.668;2023-02-22T03:25:11;98545.31;;;-17.81;64.90
45369;BME280;51342;55.250;37.668;2023-02-22T03:27:51;98545.78;;;-17.83;65.03
45369;BME280;51342;55.250;37.668;2023-02-22T03:30:30;98550.03;;;-17.88;65.24
45369;BME280;51342;55.250;37.668;2023-02-22T03:33:25;98551.41;;;-17.96;65.16
45369;BME280;51342;55.250;37.668;2023-02-22T03:36:19;98555.88;;;-17.93;65.37
45369;BME280;51342;55.250;37.668;2023-02-22T03:38:53;98570.69;;;-17.87;65.31
45369;BME280;51342;55.250;37.668;2023-02-22T03:41:28;98566.22;;;-17.90;65.33
45369;BME280;51342;55.250;37.668;2023-02-22T03:44:15;98572.53;;;-17.98;65.12
45369;BME280;51342;55.250;37.668;2023-02-22T03:46:50;98578.34;;;-17.97;65.37
45369;BME280;51342;55.250;37.668;2023-02-22T03:49:39;98587.09;;;-18.05;65.47
45369;BME280;51342;55.250;37.668;2023-02-22T03:52:14;98593.59;;;-18.11;65.50
45369;BME280;51342;55.250;37.668;2023-02-22T03:54:45;98586.88;;;-18.17;65.46
45369;BME280;51342;55.250;37.668;2023-02-22T03:57:24;98599.91;;;-18.18;65.62
45369;BME280;51342;55.250;37.668;2023-02-22T04:00:08;98604.63;;;-18.20;65.68
45369;BME280;51342;55.250;37.668;2023-02-22T04:02:48;98601.91;;;-18.27;65.59
45369;BME280;51342;55.250;37.668;2023-02-22T04:05:23;98609.06;;;-18.29;65.63
45369;BME280;51342;55.250;37.668;2023-02-22T04:07:56;98615.59;;;-18.29;65.71
45369;BME280;51342;55.250;37.668;2023-02-22T04:10:28;98608.88;;;-18.30;65.68
45369;BME280;51342;55.250;37.668;2023-02-22T04:12:59;98622.09;;;-18.35;65.60
45369;BME280;51342;55.250;37.668;2023-02-22T04:15:31;98619.59;;;-18.41;65.65
45369;BME280;51342;55.250;37.668;2023-02-22T04:18:08;98627.69;;;-18.42;65.70
45369;BME280;51342;55.250;37.668;2023-02-22T04:20:40;98631.06;;;-18.41;65.66
45369;BME280;51342;55.250;37.668;2023-02-22T04:23:22;98629.91;;;-18.43;65.58
45369;BME280;51342;55.250;37.668;2023-02-22T04:25:54;98633.94;;;-18.44;65.67
45369;BME280;51342;55.250;37.668;2023-02-22T04:28:26;98635.75;;;-18.49;65.37
45369;BME280;51342;55.250;37.668;2023-02-22T04:31:08;98642.47;;;-18.48;65.59
45369;BME280;51342;55.250;37.668;2023-02-22T04:33:40;98637.97;;;-18.50;65.77
45369;BME280;51342;55.250;37.668;2023-02-22T04:36:13;98640.69;;;-18.49;65.67
45369;BME280;51342;55.250;37.668;2023-02-22T04:38:47;98642.47;;;-18.48;65.68
45369;BME280;51342;55.250;37.668;2023-02-22T04:41:21;98653.25;;;-18.47;65.67
45369;BME280;51342;55.250;37.668;2023-02-22T04:43:54;98645.63;;;-18.49;65.49
45369;BME280;51342;55.250;37.668;2023-02-22T04:46:30;98655.47;;;-18.54;65.60
45369;BME280;51342;55.250;37.668;2023-02-22T04:49:01;98643.34;;;-18.64;65.46
45369;BME280;51342;55.250;37.668;2023-02-22T04:51:36;98658.16;;;-18.53;65.54
45369;BME280;51342;55.250;37.668;2023-02-22T04:54:13;98666.47;;;-18.52;65.54
45369;BME280;51342;55.250;37.668;2023-02-22T04:56:51;98661.53;;;-18.52;65.54
45369;BME280;51342;55.250;37.668;2023-02-22T04:59:23;98666.69;;;-18.51;65.47
45369;BME280;51342;55.250;37.668;2023-02-22T05:02:01;98669.38;;;-18.49;65.34
45369;BME280;51342;55.250;37.668;2023-02-22T05:04:35;98674.56;;;-18.48;65.27
45369;BME280;51342;55.250;37.668;2023-02-22T05:07:08;98675.88;;;-18.50;65.34
45369;BME280;51342;55.250;37.668;2023-02-22T05:09:40;98677.91;;;-18.47;65.34
45369;BME280;51342;55.250;37.668;2023-02-22T05:12:14;98679.03;;;-18.45;65.53
45369;BME280;51342;55.250;37.668;2023-02-22T05:14:47;98677.94;;;-18.41;65.29
45369;BME280;51342;55.250;37.668;2023-02-22T05:17:19;98683.75;;;-18.41;65.36
45369;BME280;51342;55.250;37.668;2023-02-22T05:19:52;98675.47;;;-18.41;65.32
45369;BME280;51342;55.250;37.668;2023-02-22T05:22:26;98685.34;;;-18.36;65.42
45369;BME280;51342;55.250;37.668;2023-02-22T05:24:59;98684.22;;;-18.27;65.21
45369;BME280;51342;55.250;37.668;2023-02-22T05:27:32;98686.50;;;-18.23;65.41
45369;BME280;51342;55.250;37.668;2023-02-22T05:30:09;98688.28;;;-18.22;65.08
45369;BME280;51342;55.250;37.668;2023-02-22T05:32:43;98694.13;;;-18.15;65.16
45369;BME280;51342;55.250;37.668;2023-02-22T05:35:18;98687.19;;;-18.07;65.07
45369;BME280;51342;55.250;37.668;2023-02-22T05:37:53;98694.16;;;-17.99;64.96
45369;BME280;51342;55.250;37.668;2023-02-22T05:40:28;98697.06;;;-18.01;65.01
45369;BME280;51342;55.250;37.668;2023-02-22T05:43:01;98687.44;;;-17.94;64.77
45369;BME280;51342;55.250;37.668;2023-02-22T05:45:34;98696.88;;;-17.75;64.94
45369;BME280;51342;55.250;37.668;2023-02-22T05:48:08;98699.31;;;-17.63;64.85
45369;BME280;51342;55.250;37.668;2023-02-22T05:50:41;98700.88;;;-17.58;64.66
45369;BME280;51342;55.250;37.668;2023-02-22T05:53:16;98708.75;;;-17.44;64.79
45369;BME280;51342;55.250;37.668;2023-02-22T05:55:51;98708.28;;;-17.30;64.86
45369;BME280;51342;55.250;37.668;2023-02-22T05:58:25;98700.19;;;-17.24;64.68
45369;BME280;51342;55.250;37.668;2023-02-22T06:00:58;98708.03;;;-17.09;64.69
45369;BME280;51342;55.250;37.668;2023-02-22T06:03:32;98707.09;;;-16.99;64.64
45369;BME280;51342;55.250;37.668;2023-02-22T06:06:05;98711.81;;;-16.89;64.58
45369;BME280;51342;55.250;37.668;2023-02-22T06:08:40;98708.44;;;-16.84;64.73
45369;BME280;51342;55.250;37.668;2023-02-22T06:11:13;98721.16;;;-16.70;64.55
45369;BME280;51342;55.250;37.668;2023-02-22T06:13:51;98722.25;;;-16.62;64.70
45369;BME280;51342;55.250;37.668;2023-02-22T06:16:26;98725.56;;;-16.50;64.70
45369;BME280;51342;55.250;37.668;2023-02-22T06:19:00;98718.78;;;-16.40;64.67
45369;BME280;51342;55.250;37.668;2023-02-22T06:21:34;98723.97;;;-16.33;64.59
45369;BME280;51342;55.250;37.668;2023-02-22T06:24:12;98709.97;;;-16.27;64.58
45369;BME280;51342;55.250;37.668;2023-02-22T06:26:58;98723.41;;;-16.14;64.69
45369;BME280;51342;55.250;37.668;2023-02-22T06:29:30;98724.03;;;-16.03;64.54
45369;BME280;51342;55.250;37.668;2023-02-22T06:32:07;98725.09;;;-15.96;64.62
45369;BME280;51342;55.250;37.668;2023-02-22T06:34:44;98720.09;;;-15.90;64.63
45369;BME280;51342;55.250;37.668;2023-02-22T06:37:22;98718.69;;;-15.83;64.70
45369;BME280;51342;55.250;37.668;2023-02-22T06:39:57;98734.19;;;-15.72;64.84
45369;BME280;51342;55.250;37.668;2023-02-22T06:42:33;98731.59;;;-15.61;64.49
45369;BME280;51342;55.250;37.668;2023-02-22T06:45:11;98740.78;;;-15.55;64.54
45369;BME280;51342;55.250;37.668;2023-02-22T06:47:48;98738.50;;;-15.47;64.54
45369;BME280;51342;55.250;37.668;2023-02-22T06:50:26;98740.00;;;-15.37;64.50
45369;BME280;51342;55.250;37.668;2023-02-22T06:53:06;98746.41;;;-15.26;64.57
45369;BME280;51342;55.250;37.668;2023-02-22T06:55:41;98752.66;;;-15.17;64.48
45369;BME280;51342;55.250;37.668;2023-02-22T06:58:19;98741.84;;;-15.17;64.42
45369;BME280;51342;55.250;37.668;2023-02-22T07:01:00;98745.16;;;-15.11;64.61
45369;BME280;51342;55.250;37.668;2023-02-22T07:03:35;98751.63;;;-15.01;64.64
45369;BME280;51342;55.250;37.668;2023-02-22T07:06:12;98757.56;;;-14.87;64.59
45369;BME280;51342;55.250;37.668;2023-02-22T07:08:45;98753.13;;;-14.72;64.34
45369;BME280;51342;55.250;37.668;2023-02-22T07:11:21;98770.13;;;-14.56;64.41
45369;BME280;51342;55.250;37.668;2023-02-22T07:14:02;98768.88;;;-14.47;64.48
45369;BME280;51342;55.250;37.668;2023-02-22T07:16:38;98766.47;;;-14.34;64.27
45369;BME280;51342;55.250;37.668;2023-02-22T07:19:13;98777.38;;;-14.21;64.05
45369;BME280;51342;55.250;37.668;2023-02-22T07:21:48;98771.13;;;-14.06;64.06
45369;BME280;51342;55.250;37.668;2023-02-22T07:24:25;98779.09;;;-13.96;64.15
45369;BME280;51342;55.250;37.668;2023-02-22T07:27:05;98775.38;;;-13.87;64.13
45369;BME280;51342;55.250;37.668;2023-02-22T07:29:46;98783.78;;;-13.74;63.80
45369;BME280;51342;55.250;37.668;2023-02-22T07:32:21;98773.28;;;-13.66;64.01
45369;BME280;51342;55.250;37.668;2023-02-22T07:35:02;98781.94;;;-13.56;63.91
45369;BME280;51342;55.250;37.668;2023-02-22T07:37:39;98779.53;;;-13.44;63.91
45369;BME280;51342;55.250;37.668;2023-02-22T07:40:18;98777.22;;;-13.42;63.65
45369;BME280;51342;55.250;37.668;2023-02-22T07:43:03;98781.16;;;-13.31;63.80
45369;BME280;51342;55.250;37.668;2023-02-22T07:45:42;98793.56;;;-13.19;63.45
45369;BME280;51342;55.250;37.668;2023-02-22T07:48:20;98812.31;;;-13.15;63.53
45369;BME280;51342;55.250;37.668;2023-02-22T07:50:56;98807.25;;;-13.10;63.54
45369;BME280;51342;55.250;37.668;2023-02-22T07:53:34;98809.22;;;-13.07;63.48
45369;BME280;51342;55.250;37.668;2023-02-22T07:56:09;98810.66;;;-12.96;63.45
45369;BME280;51342;55.250;37.668;2023-02-22T07:58:43;98815.03;;;-12.88;63.62
45369;BME280;51342;55.250;37.668;2023-02-22T08:01:21;98816.34;;;-12.85;63.52
45369;BME280;51342;55.250;37.668;2023-02-22T08:04:00;98828.78;;;-12.72;63.56
45369;BME280;51342;55.250;37.668;2023-02-22T08:06:37;98825.59;;;-12.71;63.01
45369;BME280;51342;55.250;37.668;2023-02-22T08:09:13;98807.97;;;-12.72;63.15
45369;BME280;51342;55.250;37.668;2023-02-22T08:11:47;98811.97;;;-12.67;63.28
45369;BME280;51342;55.250;37.668;2023-02-22T08:14:22;98815.88;;;-12.57;63.11
45369;BME280;51342;55.250;37.668;2023-02-22T08:16:59;98817.75;;;-12.48;62.87
45369;BME280;51342;55.250;37.668;2023-02-22T08:19:31;98817.25;;;-12.46;62.56
45369;BME280;51342;55.250;37.668;2023-02-22T08:22:08;98831.00;;;-12.42;62.65
45369;BME280;51342;55.250;37.668;2023-02-22T08:24:45;98831.59;;;-12.38;62.73
45369;BME280;51342;55.250;37.668;2023-02-22T08:27:25;98833.81;;;-12.34;62.69
45369;BME280;51342;55.250;37.668;2023-02-22T08:30:01;98836.91;;;-12.29;62.48
45369;BME280;51342;55.250;37.668;2023-02-22T08:32:43;98840.38;;;-12.21;62.59
45369;BME280;51342;55.250;37.668;2023-02-22T08:35:24;98845.84;;;-12.11;62.46
45369;BME280;51342;55.250;37.668;2023-02-22T08:38:04;98855.19;;;-12.03;62.36
45369;BME280;51342;55.250;37.668;2023-02-22T08:40:44;98846.31;;;-11.88;62.13
45369;BME280;51342;55.250;37.668;2023-02-22T08:43:22;98847.09;;;-11.82;62.13
45369;BME280;51342;55.250;37.668;2023-02-22T08:45:57;98849.97;;;-11.79;61.82
45369;BME280;51342;55.250;37.668;2023-02-22T08:48:36;98850.84;;;-11.79;61.88
45369;BME280;51342;55.250;37.668;2023-02-22T08:51:16;98849.22;;;-11.65;61.75
45369;BME280;51342;55.250;37.668;2023-02-22T08:53:56;98847.38;;;-11.54;61.67
45369;BME280;51342;55.250;37.668;2023-02-22T08:56:33;98860.69;;;-11.40;61.64
45369;BME280;51342;55.250;37.668;2023-02-22T08:59:12;98862.06;;;-11.30;61.46
45369;BME280;51342;55.250;37.668;2023-02-22T09:01:50;98858.72;;;-11.23;61.21
45369;BME280;51342;55.250;37.668;2023-02-22T09:04:29;98844.53;;;-11.37;61.16
45369;BME280;51342;55.250;37.668;2023-02-22T09:07:04;98859.44;;;-11.24;61.31
45369;BME280;51342;55.250;37.668;2023-02-22T09:09:43;98857.66;;;-11.25;61.05
45369;BME280;51342;55.250;37.668;2023-02-22T09:12:21;98853.88;;;-11.29;61.10
45369;BME280;51342;55.250;37.668;2023-02-22T09:14:57;98863.53;;;-11.25;60.71
45369;BME280;51342;55.250;37.668;2023-02-22T09:17:35;98857.78;;;-11.31;60.89
45369;BME280;51342;55.250;37.668;2023-02-22T09:20:16;98863.66;;;-11.30;60.83
45369;BME280;51342;55.250;37.668;2023-02-22T09:22:52;98860.88;;;-11.26;60.59
45369;BME280;51342;55.250;37.668;2023-02-22T09:25:30;98874.69;;;-11.15;60.99
45369;BME280;51342;55.250;37.668;2023-02-22T09:28:08;98865.44;;;-11.16;60.18
45369;BME280;51342;55.250;37.668;2023-02-22T09:30:42;98864.91;;;-11.14;60.26
45369;BME280;51342;55.250;37.668;2023-02-22T09:33:20;98866.19;;;-11.10;60.22
45369;BME280;51342;55.250;37.668;2023-02-22T09:35:56;98871.09;;;-11.17;60.16
45369;BME280;51342;55.250;37.668;2023-02-22T09:38:37;98876.09;;;-11.17;60.20
45369;BME280;51342;55.250;37.668;2023-02-22T09:41:22;98869.84;;;-11.21;60.01
45369;BME280;51342;55.250;37.668;2023-02-22T09:44:21;98876.22;;;-11.23;60.06
45369;BME280;51342;55.250;37.668;2023-02-22T09:47:02;98883.22;;;-11.20;60.17
45369;BME280;51342;55.250;37.668;2023-02-22T09:52:40;98873.88;;;-11.09;59.74
45369;BME280;51342;55.250;37.668;2023-02-22T09:58:48;98885.09;;;-10.92;59.28
45369;BME280;51342;55.250;37.668;2023-02-22T10:01:56;98884.00;;;-10.94;59.39
45369;BME280;51342;55.250;37.668;2023-02-22T10:04:54;98884.56;;;-10.90;59.44
45369;BME280;51342;55.250;37.668;2023-02-22T10:07:43;98889.13;;;-10.80;59.34
45369;BME280;51342;55.250;37.668;2023-02-22T10:10:29;98889.28;;;-10.79;59.29
45369;BME280;51342;55.250;37.668;2023-02-22T10:21:55;98885.47;;;-10.70;59.16
45369;BME280;51342;55.250;37.668;2023-02-22T10:27:20;98889.63;;;-10.63;59.04
45369;BME280;51342;55.250;37.668;2023-02-22T10:33:02;98895.59;;;-10.75;59.30
45369;BME280;51342;55.250;37.668;2023-02-22T10:35:44;98893.28;;;-10.74;58.86
45369;BME280;51342;55.250;37.668;2023-02-22T10:43:48;98898.97;;;-10.75;58.73
45369;BME280;51342;55.250;37.668;2023-02-22T10:46:28;98901.66;;;-10.73;58.70
45369;BME280;51342;55.250;37.668;2023-02-22T10:49:14;98899.44;;;-10.64;58.55
45369;BME280;51342;55.250;37.668;2023-02-22T10:52:02;98898.19;;;-10.61;58.55
45369;BME280;51342;55.250;37.668;2023-02-22T10:54:43;98905.19;;;-10.58;58.64
45369;BME280;51342;55.250;37.668;2023-02-22T10:57:24;98903.75;;;-10.56;58.50
45369;BME280;51342;55.250;37.668;2023-02-22T11:00:17;98904.66;;;-10.56;58.55
45369;BME280;51342;55.250;37.668;2023-02-22T11:03:14;98905.94;;;-10.52;58.51
45369;BME280;51342;55.250;37.668;2023-02-22T11:05:56;98909.53;;;-10.50;58.56
45369;BME280;51342;55.250;37.668;2023-02-22T11:08:50;98902.72;;;-10.51;58.73
45369;BME280;51342;55.250;37.668;2023-02-22T11:11:46;98908.63;;;-10.51;58.67
45369;BME280;51342;55.250;37.668;2023-02-22T11:14:28;98909.75;;;-10.49;58.73
45369;BME280;51342;55.250;37.668;2023-02-22T11:17:09;98910.81;;;-10.47;58.84
45369;BME280;51342;55.250;37.668;2023-02-22T11:19:51;98914.91;;;-10.47;58.67
45369;BME280;51342;55.250;37.668;2023-02-22T11:22:38;98914.88;;;-10.54;58.72
45369;BME280;51342;55.250;37.668;2023-02-22T11:25:28;98915.94;;;-10.52;58.78
45369;BME280;51342;55.250;37.668;2023-02-22T11:28:10;98924.16;;;-10.53;58.83
45369;BME280;51342;55.250;37.668;2023-02-22T11:30:51;98930.53;;;-10.55;58.90
45369;BME280;51342;55.250;37.668;2023-02-22T11:33:30;98928.75;;;-10.56;58.82
45369;BME280;51342;55.250;37.668;2023-02-22T11:36:08;98929.66;;;-10.56;58.94
45369;BME280;51342;55.250;37.668;2023-02-22T11:38:57;98934.28;;;-10.59;58.88
45369;BME280;51342;55.250;37.668;2023-02-22T11:41:34;98933.56;;;-10.58;58.94
45369;BME280;51342;55.250;37.668;2023-02-22T11:44:30;98941.38;;;-10.62;59.04
45369;BME280;51342;55.250;37.668;2023-02-22T11:47:12;98943.56;;;-10.58;58.94
45369;BME280;51342;55.250;37.668;2023-02-22T11:49:48;98945.34;;;-10.57;58.88
45369;BME280;51342;55.250;37.668;2023-02-22T11:52:41;98948.75;;;-10.56;58.93
45369;BME280;51342;55.250;37.668;2023-02-22T11:56:18;98950.50;;;-10.62;59.16
45369;BME280;51342;55.250;37.668;2023-02-22T12:01:46;98953.28;;;-10.66;59.17
45369;BME280;51342;55.250;37.668;2023-02-22T12:04:47;98947.88;;;-10.77;59.22
45369;BME280;51342;55.250;37.668;2023-02-22T12:07:58;98967.34;;;-10.74;58.94
45369;BME280;51342;55.250;37.668;2023-02-22T12:11:14;98979.53;;;-10.70;58.91
45369;BME280;51342;55.250;37.668;2023-02-22T12:22:35;98990.50;;;-10.95;58.61
45369;BME280;51342;55.250;37.668;2023-02-22T12:25:21;98986.59;;;-10.93;58.79
45369;BME280;51342;55.250;37.668;2023-02-22T12:28:26;99001.91;;;-10.97;58.91
45369;BME280;51342;55.250;37.668;2023-02-22T12:32:04;99001.72;;;-10.99;58.83
45369;BME280;51342;55.250;37.668;2023-02-22T12:34:44;99003.63;;;-11.03;58.91
45369;BME280;51342;55.250;37.668;2023-02-22T12:43:24;99011.34;;;-11.14;58.85
45369;BME280;51342;55.250;37.668;2023-02-22T12:49:07;99025.81;;;-11.12;58.99
45369;BME280;51342;55.250;37.668;2023-02-22T12:55:22;99038.41;;;-11.30;58.67
45369;BME280;51342;55.250;37.668;2023-02-22T13:01:10;99034.34;;;-11.42;58.98
45369;BME280;51342;55.250;37.668;2023-02-22T13:03:54;99028.75;;;-11.47;59.00
45369;BME280;51342;55.250;37.668;2023-02-22T13:21:27;99051.91;;;-11.61;58.87
45369;BME280;51342;55.250;37.668;2023-02-22T13:29:43;99049.53;;;-11.66;58.95
45369;BME280;51342;55.250;37.668;2023-02-22T13:35:39;99069.47;;;-11.66;59.16
45369;BME280;51342;55.250;37.668;2023-02-22T13:38:48;99074.06;;;-11.69;59.11
45369;BME280;51342;55.250;37.668;2023-02-22T13:50:54;99086.34;;;-11.84;59.15
45369;BME280;51342;55.250;37.668;2023-02-22T13:53:57;99084.16;;;-11.88;59.16
45369;BME280;51342;55.250;37.668;2023-02-22T13:56:45;99095.22;;;-11.86;59.17
45369;BME280;51342;55.250;37.668;2023-02-22T13:59:32;99087.16;;;-11.90;59.35
45369;BME280;51342;55.250;37.668;2023-02-22T14:10:58;99100.53;;;-12.08;59.43
45369;BME280;51342;55.250;37.668;2023-02-22T14:16:38;99100.94;;;-12.18;59.65
45369;BME280;51342;55.250;37.668;2023-02-22T14:19:21;99111.69;;;-12.24;59.79
45369;BME280;51342;55.250;37.668;2023-02-22T14:22:01;99110.09;;;-12.24;59.65
45369;BME280;51342;55.250;37.668;2023-02-22T14:24:44;99112.22;;;-12.33;59.76
45369;BME280;51342;55.250;37.668;2023-02-22T14:27:38;99112.50;;;-12.37;59.75
45369;BME280;51342;55.250;37.668;2023-02-22T14:31:02;99113.78;;;-12.46;59.84
45369;BME280;51342;55.250;37.668;2023-02-22T14:34:02;99119.03;;;-12.50;59.87
45369;BME280;51342;55.250;37.668;2023-02-22T14:51:03;99127.75;;;-12.77;60.15
45369;BME280;51342;55.250;37.668;2023-02-22T14:54:10;99144.06;;;-12.79;60.39
45369;BME280;51342;55.250;37.668;2023-02-22T15:00:03;99143.41;;;-13.02;60.47
45369;BME280;51342;55.250;37.668;2023-02-22T15:02:56;99156.19;;;-13.12;60.61
45369;BME280;51342;55.250;37.668;2023-02-22T15:05:37;99152.66;;;-13.20;60.67
45369;BME280;51342;55.250;37.668;2023-02-22T15:08:19;99158.13;;;-13.22;60.66
45369;BME280;51342;55.250;37.668;2023-02-22T15:11:04;99160.19;;;-13.25;60.58
45369;BME280;51342;55.250;37.668;2023-02-22T15:13:53;99164.03;;;-13.27;60.77
45369;BME280;51342;55.250;37.668;2023-02-22T15:16:34;99172.00;;;-13.30;60.73
45369;BME280;51342;55.250;37.668;2023-02-22T15:19:20;99180.38;;;-13.29;60.68
45369;BME280;51342;55.250;37.668;2023-02-22T15:22:03;99182.25;;;-13.40;60.74
45369;BME280;51342;55.250;37.668;2023-02-22T15:24:44;99188.63;;;-13.42;60.90
45369;BME280;51342;55.250;37.668;2023-02-22T15:27:34;99185.31;;;-13.53;60.70
45369;BME280;51342;55.250;37.668;2023-02-22T15:32:50;99192.66;;;-13.66;60.89
45369;BME280;51342;55.250;37.668;2023-02-22T15:35:33;99202.91;;;-13.81;61.05
45369;BME280;51342;55.250;37.668;2023-02-22T15:41:18;99205.53;;;-14.04;61.45
45369;BME280;51342;55.250;37.668;2023-02-22T15:44:13;99210.34;;;-14.11;61.35
45369;BME280;51342;55.250;37.668;2023-02-22T15:47:24;99209.66;;;-14.15;61.46
45369;BME280;51342;55.250;37.668;2023-02-22T15:50:18;99209.69;;;-14.21;61.15
45369;BME280;51342;55.250;37.668;2023-02-22T15:55:48;99221.63;;;-14.13;61.22
45369;BME280;51342;55.250;37.668;2023-02-22T15:58:31;99220.75;;;-14.19;61.15
45369;BME280;51342;55.250;37.668;2023-02-22T16:01:15;99218.09;;;-14.32;61.13
45369;BME280;51342;55.250;37.668;2023-02-22T16:03:55;99230.72;;;-14.30;61.37
45369;BME280;51342;55.250;37.668;2023-02-22T16:06:39;99231.44;;;-14.37;61.40
45369;BME280;51342;55.250;37.668;2023-02-22T16:09:18;99234.22;;;-14.47;61.54
45369;BME280;51342;55.250;37.668;2023-02-22T16:12:28;99234.75;;;-14.72;61.45
45369;BME280;51342;55.250;37.668;2023-02-22T16:15:12;99235.66;;;-14.77;61.82